sensor_id;sensor_type;location;lat;lon;timestamp;pressure;altitude;pressure_sealevel;temperature;humidity
61026;BME280;46911;32.650;-16.902;2023-03-18T00:01:28;102114.00;;;17.48;55.76
61026;BME280;46911;32.650;-16.902;2023-03-18T00:03:36;102108.72;;;17.47;55.76
61026;BME280;46911;32.650;-16.902;2023-03-18T00:05:40;102113.03;;;17.49;55.30
61026;BME280;46911;32.650;-16.902;2023-03-18T00:07:44;102115.84;;;17.48;54.79
61026;BME280;46911;32.650;-16.902;2023-03-18T00:09:49;102114.84;;;17.49;54.68
61026;BME280;46911;32.650;-16.902;2023-03-18T00:11:52;102110.66;;;17.45;54.16
61026;BME280;46911;32.650;-16.902;2023-03-18T00:13:56;102099.59;;;17.36;54.05
61026;BME280;46911;32.650;-16.902;2023-03-18T00:15:58;102101.19;;;17.39;53.66
61026;BME280;46911;32.650;-16.902;2023-03-18T00:18:04;102116.81;;;17.47;53.36
61026;BME280;46911;32.650;-16.902;2023-03-18T00:20:08;102114.00;;;17.48;53.10
61026;BME280;46911;32.650;-16.902;2023-03-18T00:22:12;102097.44;;;17.53;52.44
61026;BME280;46911;32.650;-16.902;2023-03-18T00:24:13;102055.25;;;17.16;52.31
61026;BME280;46911;32.650;-16.902;2023-03-18T00:26:15;102099.34;;;17.39;52.28
61026;BME280;46911;32.650;-16.902;2023-03-18T00:28:23;102090.13;;;17.31;52.24
61026;BME280;46911;32.650;-16.902;2023-03-18T00:30:27;102075.47;;;17.22;52.08
61026;BME280;46911;32.650;-16.902;2023-03-18T00:32:28;102076.44;;;17.21;52.29
61026;BME280;46911;32.650;-16.902;2023-03-18T00:34:29;102094.63;;;17.30;52.50
61026;BME280;46911;32.650;-16.902;2023-03-18T00:36:30;102078.06;;;17.23;52.36
61026;BME280;46911;32.650;-16.902;2023-03-18T00:38:32;102095.63;;;17.29;52.28
61026;BME280;46911;32.650;-16.902;2023-03-18T00:40:34;102078.66;;;17.16;52.63
61026;BME280;46911;32.650;-16.902;2023-03-18T00:42:52;102084.91;;;17.16;52.41
61026;BME280;46911;32.650;-16.902;2023-03-18T00:45:04;102053.25;;;16.94;52.23
61026;BME280;46911;32.650;-16.902;2023-03-18T00:47:08;102092.06;;;17.29;52.19
61026;BME280;46911;32.650;-16.902;2023-03-18T00:49:10;102080.47;;;17.15;52.08
61026;BME280;46911;32.650;-16.902;2023-03-18T00:51:13;102087.06;;;17.11;51.98
61026;BME280;46911;32.650;-16.902;2023-03-18T00:53:17;102070.50;;;17.04;51.66
61026;BME280;46911;32.650;-16.902;2023-03-18T00:55:23;102086.78;;;17.03;51.90
61026;BME280;46911;32.650;-16.902;2023-03-18T00:57:24;102083.91;;;16.93;52.06
61026;BME280;46911;32.650;-16.902;2023-03-18T00:59:29;102069.59;;;16.80;52.34
61026;BME280;46911;32.650;-16.902;2023-03-18T01:01:33;102068.41;;;16.71;52.25
61026;BME280;46911;32.650;-16.902;2023-03-18T01:03:35;102074.63;;;16.71;52.52
61026;BME280;46911;32.650;-16.902;2023-03-18T01:05:36;102080.72;;;16.62;52.86
61026;BME280;46911;32.650;-16.902;2023-03-18T01:07:38;102088.25;;;16.57;53.07
61026;BME280;46911;32.650;-16.902;2023-03-18T01:09:39;102098.38;;;16.53;53.21
61026;BME280;46911;32.650;-16.902;2023-03-18T01:11:40;102090.19;;;16.42;53.26
61026;BME280;46911;32.650;-16.902;2023-03-18T01:13:41;102077.84;;;16.39;53.13
61026;BME280;46911;32.650;-16.902;2023-03-18T01:15:43;102072.88;;;16.46;53.16
61026;BME280;46911;32.650;-16.902;2023-03-18T01:17:45;102070.72;;;16.38;52.76
61026;BME280;46911;32.650;-16.902;2023-03-18T01:19:46;102090.84;;;16.46;52.81
61026;BME280;46911;32.650;-16.902;2023-03-18T01:21:48;102070.41;;;16.30;53.02
61026;BME280;46911;32.650;-16.902;2023-03-18T01:23:54;102077.72;;;16.41;53.31
61026;BME280;46911;32.650;-16.902;2023-03-18T01:26:00;102047.69;;;16.21;53.12
61026;BME280;46911;32.650;-16.902;2023-03-18T01:28:04;102062.41;;;16.29;53.40
61026;BME280;46911;32.650;-16.902;2023-03-18T01:30:08;102066.22;;;16.13;53.63
61026;BME280;46911;32.650;-16.902;2023-03-18T01:32:12;102081.81;;;16.08;54.17
61026;BME280;46911;32.650;-16.902;2023-03-18T01:34:16;102069.53;;;16.04;54.43
61026;BME280;46911;32.650;-16.902;2023-03-18T01:36:25;102028.09;;;15.94;54.79
61026;BME280;46911;32.650;-16.902;2023-03-18T01:38:39;101971.69;;;15.92;54.25
61026;BME280;46911;32.650;-16.902;2023-03-18T01:40:48;101981.91;;;15.87;54.42
61026;BME280;46911;32.650;-16.902;2023-03-18T01:43:33;101987.78;;;15.79;54.84
61026;BME280;46911;32.650;-16.902;2023-03-18T01:45:29;102006.34;;;15.84;54.96
61026;BME280;46911;32.650;-16.902;2023-03-18T01:47:34;101995.53;;;15.71;55.56
61026;BME280;46911;32.650;-16.902;2023-03-18T01:49:44;101972.16;;;15.46;56.13
61026;BME280;46911;32.650;-16.902;2023-03-18T01:51:53;101977.00;;;15.40;56.31
61026;BME280;46911;32.650;-16.902;2023-03-18T01:53:58;101993.91;;;15.43;56.52
61026;BME280;46911;32.650;-16.902;2023-03-18T01:56:02;101985.28;;;15.37;56.87
61026;BME280;46911;32.650;-16.902;2023-03-18T01:58:23;101969.78;;;15.28;57.03
61026;BME280;46911;32.650;-16.902;2023-03-18T02:00:27;101966.09;;;15.16;57.46
61026;BME280;46911;32.650;-16.902;2023-03-18T02:02:29;101977.06;;;15.13;57.58
61026;BME280;46911;32.650;-16.902;2023-03-18T02:04:34;101978.13;;;15.11;57.50
61026;BME280;46911;32.650;-16.902;2023-03-18T02:06:38;101978.34;;;15.07;57.73
61026;BME280;46911;32.650;-16.902;2023-03-18T02:08:39;101994.13;;;15.12;58.01
61026;BME280;46911;32.650;-16.902;2023-03-18T02:10:44;101980.81;;;15.11;58.06
61026;BME280;46911;32.650;-16.902;2023-03-18T02:12:50;101969.94;;;14.99;58.22
61026;BME280;46911;32.650;-16.902;2023-03-18T02:15:01;101934.50;;;14.80;58.35
61026;BME280;46911;32.650;-16.902;2023-03-18T02:17:09;101962.38;;;14.92;58.63
61026;BME280;46911;32.650;-16.902;2023-03-18T02:22:08;101936.84;;;14.84;59.01
61026;BME280;46911;32.650;-16.902;2023-03-18T02:26:47;101923.84;;;14.78;59.82
61026;BME280;46911;32.650;-16.902;2023-03-18T02:28:58;101929.00;;;14.81;60.10
61026;BME280;46911;32.650;-16.902;2023-03-18T02:31:10;101922.03;;;14.79;60.20
61026;BME280;46911;32.650;-16.902;2023-03-18T02:33:15;101958.06;;;14.89;60.36
61026;BME280;46911;32.650;-16.902;2023-03-18T02:35:18;101941.16;;;14.74;60.47
61026;BME280;46911;32.650;-16.902;2023-03-18T02:37:23;101940.25;;;14.73;60.75
61026;BME280;46911;32.650;-16.902;2023-03-18T02:39:27;101958.47;;;14.83;61.09
61026;BME280;46911;32.650;-16.902;2023-03-18T02:41:33;101962.31;;;14.79;61.26
61026;BME280;46911;32.650;-16.902;2023-03-18T02:43:38;101967.13;;;14.73;61.38
61026;BME280;46911;32.650;-16.902;2023-03-18T02:48:16;101984.41;;;14.69;61.67
61026;BME280;46911;32.650;-16.902;2023-03-18T02:50:25;101945.75;;;14.57;62.02
61026;BME280;46911;32.650;-16.902;2023-03-18T02:52:27;101948.44;;;14.57;62.12
61026;BME280;46911;32.650;-16.902;2023-03-18T02:54:31;101941.38;;;14.56;62.13
61026;BME280;46911;32.650;-16.902;2023-03-18T02:56:33;101961.56;;;14.62;62.22
61026;BME280;46911;32.650;-16.902;2023-03-18T02:58:35;101964.19;;;14.64;62.28
61026;BME280;46911;32.650;-16.902;2023-03-18T03:00:37;101944.69;;;14.60;62.11
61026;BME280;46911;32.650;-16.902;2023-03-18T03:02:38;101954.47;;;14.61;62.28
61026;BME280;46911;32.650;-16.902;2023-03-18T03:04:41;101942.72;;;14.49;62.47
61026;BME280;46911;32.650;-16.902;2023-03-18T03:06:45;101959.47;;;14.53;62.81
61026;BME280;46911;32.650;-16.902;2023-03-18T03:08:51;101979.81;;;14.57;62.83
61026;BME280;46911;32.650;-16.902;2023-03-18T03:10:53;101973.13;;;14.50;62.65
61026;BME280;46911;32.650;-16.902;2023-03-18T03:12:54;101971.06;;;14.53;62.69
61026;BME280;46911;32.650;-16.902;2023-03-18T03:14:56;101975.88;;;14.48;62.68
61026;BME280;46911;32.650;-16.902;2023-03-18T03:17:01;101947.34;;;14.33;62.63
61026;BME280;46911;32.650;-16.902;2023-03-18T03:19:05;101988.81;;;14.56;62.57
61026;BME280;46911;32.650;-16.902;2023-03-18T03:21:07;101993.34;;;14.55;62.53
61026;BME280;46911;32.650;-16.902;2023-03-18T03:23:13;101987.00;;;14.56;62.46
61026;BME280;46911;32.650;-16.902;2023-03-18T03:25:15;101982.59;;;14.55;62.31
61026;BME280;46911;32.650;-16.902;2023-03-18T03:27:16;101971.38;;;14.49;62.12
61026;BME280;46911;32.650;-16.902;2023-03-18T03:29:17;101984.50;;;14.53;62.30
61026;BME280;46911;32.650;-16.902;2023-03-18T03:31:18;101959.03;;;14.46;61.75
61026;BME280;46911;32.650;-16.902;2023-03-18T03:33:21;101954.31;;;14.50;61.82
61026;BME280;46911;32.650;-16.902;2023-03-18T03:35:25;101962.63;;;14.60;61.64
61026;BME280;46911;32.650;-16.902;2023-03-18T03:37:27;101957.53;;;14.55;61.79
61026;BME280;46911;32.650;-16.902;2023-03-18T03:39:27;101965.59;;;14.55;61.38
61026;BME280;46911;32.650;-16.902;2023-03-18T03:41:28;101955.50;;;14.46;61.32
61026;BME280;46911;32.650;-16.902;2023-03-18T03:43:30;101954.81;;;14.42;61.55
61026;BME280;46911;32.650;-16.902;2023-03-18T03:45:36;101976.56;;;14.52;61.26
61026;BME280;46911;32.650;-16.902;2023-03-18T03:47:44;101975.69;;;14.51;61.32
61026;BME280;46911;32.650;-16.902;2023-03-18T03:49:46;101982.69;;;14.54;61.04
61026;BME280;46911;32.650;-16.902;2023-03-18T03:51:49;101959.69;;;14.50;60.75
61026;BME280;46911;32.650;-16.902;2023-03-18T03:53:51;101953.66;;;14.46;60.81
61026;BME280;46911;32.650;-16.902;2023-03-18T03:55:55;101970.91;;;14.56;60.96
61026;BME280;46911;32.650;-16.902;2023-03-18T03:57:56;101946.44;;;14.47;61.18
61026;BME280;46911;32.650;-16.902;2023-03-18T03:59:58;101940.50;;;14.42;61.22
61026;BME280;46911;32.650;-16.902;2023-03-18T04:02:19;101973.47;;;14.58;61.40
61026;BME280;46911;32.650;-16.902;2023-03-18T04:04:21;101966.28;;;14.59;61.08
61026;BME280;46911;32.650;-16.902;2023-03-18T04:06:26;101947.22;;;14.49;61.27
61026;BME280;46911;32.650;-16.902;2023-03-18T04:08:34;101971.75;;;14.57;61.43
61026;BME280;46911;32.650;-16.902;2023-03-18T04:10:36;101944.75;;;14.46;61.30
61026;BME280;46911;32.650;-16.902;2023-03-18T04:12:45;101946.66;;;14.44;61.48
61026;BME280;46911;32.650;-16.902;2023-03-18T04:14:47;101981.63;;;14.56;61.53
61026;BME280;46911;32.650;-16.902;2023-03-18T04:16:51;101965.59;;;14.55;60.98
61026;BME280;46911;32.650;-16.902;2023-03-18T04:18:55;101946.16;;;14.51;61.00
61026;BME280;46911;32.650;-16.902;2023-03-18T04:20:58;101949.69;;;14.52;60.92
61026;BME280;46911;32.650;-16.902;2023-03-18T04:23:11;101945.50;;;14.48;60.68
61026;BME280;46911;32.650;-16.902;2023-03-18T04:25:12;101962.63;;;14.60;60.86
61026;BME280;46911;32.650;-16.902;2023-03-18T04:27:20;101972.69;;;14.56;61.05
61026;BME280;46911;32.650;-16.902;2023-03-18T04:29:24;101953.75;;;14.45;61.17
61026;BME280;46911;32.650;-16.902;2023-03-18T04:31:30;101947.44;;;14.46;61.24
61026;BME280;46911;32.650;-16.902;2023-03-18T04:33:32;101966.59;;;14.54;61.55
61026;BME280;46911;32.650;-16.902;2023-03-18T04:35:40;101970.97;;;14.55;61.23
61026;BME280;46911;32.650;-16.902;2023-03-18T04:37:49;101961.91;;;14.43;61.10
61026;BME280;46911;32.650;-16.902;2023-03-18T04:39:54;101975.81;;;14.50;61.38
61026;BME280;46911;32.650;-16.902;2023-03-18T04:41:56;101977.59;;;14.49;61.48
61026;BME280;46911;32.650;-16.902;2023-03-18T04:43:58;101965.13;;;14.48;61.72
61026;BME280;46911;32.650;-16.902;2023-03-18T04:46:08;101947.72;;;14.41;61.61
61026;BME280;46911;32.650;-16.902;2023-03-18T04:48:13;101942.94;;;14.32;61.85
61026;BME280;46911;32.650;-16.902;2023-03-18T04:50:18;101935.94;;;14.29;61.77
61026;BME280;46911;32.650;-16.902;2023-03-18T04:52:23;101946.47;;;14.32;61.85
61026;BME280;46911;32.650;-16.902;2023-03-18T04:54:27;101968.69;;;14.49;62.03
61026;BME280;46911;32.650;-16.902;2023-03-18T04:56:32;101960.28;;;14.40;62.01
61026;BME280;46911;32.650;-16.902;2023-03-18T04:58:34;101971.66;;;14.44;62.01
61026;BME280;46911;32.650;-16.902;2023-03-18T05:00:49;101953.00;;;14.28;62.18
61026;BME280;46911;32.650;-16.902;2023-03-18T05:03:01;101975.22;;;14.45;62.51
61026;BME280;46911;32.650;-16.902;2023-03-18T05:05:06;101959.72;;;14.35;62.61
61026;BME280;46911;32.650;-16.902;2023-03-18T05:07:13;101959.34;;;14.27;62.72
61026;BME280;46911;32.650;-16.902;2023-03-18T05:09:19;101975.81;;;14.35;63.15
61026;BME280;46911;32.650;-16.902;2023-03-18T05:11:23;101958.78;;;14.22;63.15
61026;BME280;46911;32.650;-16.902;2023-03-18T05:13:25;101975.16;;;14.32;63.31
61026;BME280;46911;32.650;-16.902;2023-03-18T05:15:30;101967.41;;;14.27;63.44
61026;BME280;46911;32.650;-16.902;2023-03-18T05:17:32;101953.59;;;14.19;63.50
61026;BME280;46911;32.650;-16.902;2023-03-18T05:19:36;101967.00;;;14.19;63.57
61026;BME280;46911;32.650;-16.902;2023-03-18T05:21:50;101971.03;;;14.26;63.70
61026;BME280;46911;32.650;-16.902;2023-03-18T05:23:53;101956.47;;;14.16;63.78
61026;BME280;46911;32.650;-16.902;2023-03-18T05:25:54;101968.34;;;14.26;63.95
61026;BME280;46911;32.650;-16.902;2023-03-18T05:27:57;101963.94;;;14.25;64.02
61026;BME280;46911;32.650;-16.902;2023-03-18T05:30:13;101964.41;;;14.32;64.18
61026;BME280;46911;32.650;-16.902;2023-03-18T05:32:21;101942.94;;;14.17;64.23
61026;BME280;46911;32.650;-16.902;2023-03-18T05:34:30;101951.97;;;14.16;64.27
61026;BME280;46911;32.650;-16.902;2023-03-18T05:36:32;101945.84;;;14.14;64.27
61026;BME280;46911;32.650;-16.902;2023-03-18T05:38:37;101960.31;;;14.26;64.45
61026;BME280;46911;32.650;-16.902;2023-03-18T05:40:42;101940.47;;;14.14;64.77
61026;BME280;46911;32.650;-16.902;2023-03-18T05:43:06;101969.09;;;14.28;64.83
61026;BME280;46911;32.650;-16.902;2023-03-18T05:45:15;101970.94;;;14.28;64.71
61026;BME280;46911;32.650;-16.902;2023-03-18T05:47:23;101957.84;;;14.09;64.88
61026;BME280;46911;32.650;-16.902;2023-03-18T05:49:39;101968.56;;;14.09;65.11
61026;BME280;46911;32.650;-16.902;2023-03-18T05:51:53;101986.88;;;14.16;65.20
61026;BME280;46911;32.650;-16.902;2023-03-18T05:54:06;101970.66;;;14.03;65.11
61026;BME280;46911;32.650;-16.902;2023-03-18T05:56:14;101971.63;;;14.02;65.30
61026;BME280;46911;32.650;-16.902;2023-03-18T05:58:17;101970.38;;;14.08;65.39
61026;BME280;46911;32.650;-16.902;2023-03-18T06:00:20;101984.94;;;14.18;65.25
61026;BME280;46911;32.650;-16.902;2023-03-18T06:02:28;101974.03;;;14.07;65.26
61026;BME280;46911;32.650;-16.902;2023-03-18T06:04:32;101994.41;;;14.24;65.40
61026;BME280;46911;32.650;-16.902;2023-03-18T06:06:33;102007.94;;;14.22;65.18
61026;BME280;46911;32.650;-16.902;2023-03-18T06:08:37;102005.34;;;14.21;65.58
61026;BME280;46911;32.650;-16.902;2023-03-18T06:10:38;102013.09;;;14.26;65.53
61026;BME280;46911;32.650;-16.902;2023-03-18T06:12:40;102003.50;;;14.21;65.64
61026;BME280;46911;32.650;-16.902;2023-03-18T06:14:43;102000.56;;;14.26;65.57
61026;BME280;46911;32.650;-16.902;2023-03-18T06:16:45;102002.94;;;14.31;65.56
61026;BME280;46911;32.650;-16.902;2023-03-18T06:18:46;101984.09;;;14.18;65.58
61026;BME280;46911;32.650;-16.902;2023-03-18T06:20:50;102000.84;;;14.21;65.98
61026;BME280;46911;32.650;-16.902;2023-03-18T06:22:51;101994.03;;;14.16;65.87
61026;BME280;46911;32.650;-16.902;2023-03-18T06:24:53;101987.50;;;14.05;66.05
61026;BME280;46911;32.650;-16.902;2023-03-18T06:26:57;102016.75;;;14.25;65.99
61026;BME280;46911;32.650;-16.902;2023-03-18T06:28:58;101999.81;;;14.10;66.11
61026;BME280;46911;32.650;-16.902;2023-03-18T06:31:02;102018.56;;;14.24;66.15
61026;BME280;46911;32.650;-16.902;2023-03-18T06:33:06;102005.25;;;14.08;66.29
61026;BME280;46911;32.650;-16.902;2023-03-18T06:35:11;102017.34;;;14.15;66.42
61026;BME280;46911;32.650;-16.902;2023-03-18T06:37:13;102009.38;;;14.14;66.64
61026;BME280;46911;32.650;-16.902;2023-03-18T06:39:17;102026.25;;;14.16;66.65
61026;BME280;46911;32.650;-16.902;2023-03-18T06:41:21;102002.09;;;14.01;66.82
61026;BME280;46911;32.650;-16.902;2023-03-18T06:43:36;102005.44;;;14.05;66.89
61026;BME280;46911;32.650;-16.902;2023-03-18T06:45:39;102023.75;;;14.13;66.76
61026;BME280;46911;32.650;-16.902;2023-03-18T06:47:46;102009.28;;;14.01;66.67
61026;BME280;46911;32.650;-16.902;2023-03-18T06:49:50;102035.53;;;14.10;66.86
61026;BME280;46911;32.650;-16.902;2023-03-18T06:52:00;102016.47;;;14.00;66.71
61026;BME280;46911;32.650;-16.902;2023-03-18T06:54:05;102019.16;;;14.00;66.56
61026;BME280;46911;32.650;-16.902;2023-03-18T06:56:07;102041.59;;;14.14;66.53
61026;BME280;46911;32.650;-16.902;2023-03-18T06:58:25;102045.41;;;14.24;66.11
61026;BME280;46911;32.650;-16.902;2023-03-18T07:00:34;102023.75;;;14.13;65.80
61026;BME280;46911;32.650;-16.902;2023-03-18T07:02:44;102039.09;;;14.25;65.92
61026;BME280;46911;32.650;-16.902;2023-03-18T07:04:49;102033.44;;;14.30;65.62
61026;BME280;46911;32.650;-16.902;2023-03-18T07:06:52;102023.19;;;14.22;65.68
61026;BME280;46911;32.650;-16.902;2023-03-18T07:08:57;102047.34;;;14.36;65.49
61026;BME280;46911;32.650;-16.902;2023-03-18T07:11:04;102031.41;;;14.33;65.52
61026;BME280;46911;32.650;-16.902;2023-03-18T07:13:11;102033.91;;;14.36;65.45
61026;BME280;46911;32.650;-16.902;2023-03-18T07:15:15;102020.41;;;14.23;65.54
61026;BME280;46911;32.650;-16.902;2023-03-18T07:17:19;102037.19;;;14.27;65.58
61026;BME280;46911;32.650;-16.902;2023-03-18T07:19:22;102026.13;;;14.17;65.69
61026;BME280;46911;32.650;-16.902;2023-03-18T07:21:24;102047.03;;;14.27;65.77
61026;BME280;46911;32.650;-16.902;2023-03-18T07:23:26;102033.53;;;14.14;65.83
61026;BME280;46911;32.650;-16.902;2023-03-18T07:25:29;102031.81;;;14.13;65.40
61026;BME280;46911;32.650;-16.902;2023-03-18T07:27:33;102039.84;;;14.13;65.10
61026;BME280;46911;32.650;-16.902;2023-03-18T07:29:35;102054.44;;;14.23;64.81
61026;BME280;46911;32.650;-16.902;2023-03-18T07:31:36;102056.81;;;14.28;64.65
61026;BME280;46911;32.650;-16.902;2023-03-18T07:33:40;102064.97;;;14.26;64.71
61026;BME280;46911;32.650;-16.902;2023-03-18T07:35:44;102046.56;;;14.20;64.34
61026;BME280;46911;32.650;-16.902;2023-03-18T07:37:47;102051.94;;;14.34;63.78
61026;BME280;46911;32.650;-16.902;2023-03-18T07:39:48;102065.56;;;14.46;63.57
61026;BME280;46911;32.650;-16.902;2023-03-18T07:41:50;102044.81;;;14.33;63.41
61026;BME280;46911;32.650;-16.902;2023-03-18T07:43:55;102067.63;;;14.55;63.17
61026;BME280;46911;32.650;-16.902;2023-03-18T07:45:56;102043.88;;;14.49;63.15
61026;BME280;46911;32.650;-16.902;2023-03-18T07:48:02;102043.78;;;14.50;63.21
61026;BME280;46911;32.650;-16.902;2023-03-18T07:50:03;102061.72;;;14.50;63.10
61026;BME280;46911;32.650;-16.902;2023-03-18T07:52:05;102084.06;;;14.65;63.15
61026;BME280;46911;32.650;-16.902;2023-03-18T07:54:06;102059.69;;;14.53;63.34
61026;BME280;46911;32.650;-16.902;2023-03-18T07:56:13;102069.75;;;14.64;63.33
61026;BME280;46911;32.650;-16.902;2023-03-18T07:58:16;102065.19;;;14.66;63.19
61026;BME280;46911;32.650;-16.902;2023-03-18T08:00:18;102062.50;;;14.66;63.29
61026;BME280;46911;32.650;-16.902;2023-03-18T08:02:18;102079.06;;;14.87;62.91
61026;BME280;46911;32.650;-16.902;2023-03-18T08:04:26;102066.59;;;14.86;63.10
61026;BME280;46911;32.650;-16.902;2023-03-18T08:06:26;102058.88;;;14.95;63.34
61026;BME280;46911;32.650;-16.902;2023-03-18T08:08:27;102073.25;;;15.08;63.23
61026;BME280;46911;32.650;-16.902;2023-03-18T08:10:31;102044.50;;;14.96;63.39
61026;BME280;46911;32.650;-16.902;2023-03-18T08:12:32;102059.13;;;15.04;63.23
61026;BME280;46911;32.650;-16.902;2023-03-18T08:14:36;102064.00;;;15.12;63.29
61026;BME280;46911;32.650;-16.902;2023-03-18T08:16:37;102069.72;;;15.20;63.07
61026;BME280;46911;32.650;-16.902;2023-03-18T08:18:40;102071.19;;;15.26;62.94
61026;BME280;46911;32.650;-16.902;2023-03-18T08:20:43;102103.75;;;15.49;62.90
61026;BME280;46911;32.650;-16.902;2023-03-18T08:22:44;102079.81;;;15.44;62.65
61026;BME280;46911;32.650;-16.902;2023-03-18T08:24:45;102083.84;;;15.51;62.49
61026;BME280;46911;32.650;-16.902;2023-03-18T08:26:46;102068.78;;;15.49;62.43
61026;BME280;46911;32.650;-16.902;2023-03-18T08:28:49;102099.28;;;15.75;62.61
61026;BME280;46911;32.650;-16.902;2023-03-18T08:30:57;102101.47;;;15.83;62.49
61026;BME280;46911;32.650;-16.902;2023-03-18T08:32:59;102083.03;;;15.77;62.57
61026;BME280;46911;32.650;-16.902;2023-03-18T08:35:05;102081.03;;;15.80;62.34
61026;BME280;46911;32.650;-16.902;2023-03-18T08:37:09;102085.88;;;15.88;62.30
61026;BME280;46911;32.650;-16.902;2023-03-18T08:39:11;102077.59;;;15.91;62.16
61026;BME280;46911;32.650;-16.902;2023-03-18T08:41:12;102097.53;;;16.01;62.19
61026;BME280;46911;32.650;-16.902;2023-03-18T08:43:16;102074.72;;;15.94;62.26
61026;BME280;46911;32.650;-16.902;2023-03-18T08:45:18;102089.13;;;16.06;61.98
61026;BME280;46911;32.650;-16.902;2023-03-18T08:47:22;102091.63;;;16.09;62.06
61026;BME280;46911;32.650;-16.902;2023-03-18T08:49:24;102088.03;;;16.09;62.00
61026;BME280;46911;32.650;-16.902;2023-03-18T08:51:25;102078.59;;;16.16;61.79
61026;BME280;46911;32.650;-16.902;2023-03-18T08:53:26;102083.34;;;16.25;61.79
61026;BME280;46911;32.650;-16.902;2023-03-18T08:55:33;102091.63;;;16.35;61.36
61026;BME280;46911;32.650;-16.902;2023-03-18T08:57:37;102104.84;;;16.51;61.23
61026;BME280;46911;32.650;-16.902;2023-03-18T08:59:38;102087.94;;;16.49;61.01
61026;BME280;46911;32.650;-16.902;2023-03-18T09:01:43;102090.84;;;16.59;60.98
61026;BME280;46911;32.650;-16.902;2023-03-18T09:03:44;102091.91;;;16.69;60.65
61026;BME280;46911;32.650;-16.902;2023-03-18T09:05:50;102102.00;;;16.91;60.44
61026;BME280;46911;32.650;-16.902;2023-03-18T09:07:52;102107.38;;;17.04;60.21
61026;BME280;46911;32.650;-16.902;2023-03-18T09:09:53;102098.72;;;17.12;59.68
61026;BME280;46911;32.650;-16.902;2023-03-18T09:11:54;102111.34;;;17.35;59.13
61026;BME280;46911;32.650;-16.902;2023-03-18T09:13:55;102103.53;;;17.44;58.91
61026;BME280;46911;32.650;-16.902;2023-03-18T09:15:59;102087.94;;;17.60;58.35
61026;BME280;46911;32.650;-16.902;2023-03-18T09:18:00;102060.69;;;17.63;57.83
61026;BME280;46911;32.650;-16.902;2023-03-18T09:20:04;102106.63;;;18.10;57.60
61026;BME280;46911;32.650;-16.902;2023-03-18T09:22:07;102095.22;;;18.18;56.99
61026;BME280;46911;32.650;-16.902;2023-03-18T09:24:09;102087.13;;;18.29;55.93
61026;BME280;46911;32.650;-16.902;2023-03-18T09:26:12;102104.22;;;18.64;55.38
61026;BME280;46911;32.650;-16.902;2023-03-18T09:28:16;102110.25;;;18.79;54.94
61026;BME280;46911;32.650;-16.902;2023-03-18T09:30:18;102102.81;;;19.26;54.90
61026;BME280;46911;32.650;-16.902;2023-03-18T09:32:22;102115.75;;;19.87;52.25
61026;BME280;46911;32.650;-16.902;2023-03-18T09:34:26;102125.22;;;20.45;51.44
61026;BME280;46911;32.650;-16.902;2023-03-18T09:36:29;102121.72;;;20.64;50.54
61026;BME280;46911;32.650;-16.902;2023-03-18T09:38:30;102115.28;;;20.77;49.37
61026;BME280;46911;32.650;-16.902;2023-03-18T09:40:46;102108.59;;;20.60;49.39
61026;BME280;46911;32.650;-16.902;2023-03-18T09:50:27;102137.47;;;21.01;47.55
61026;BME280;46911;32.650;-16.902;2023-03-18T09:56:56;102139.09;;;23.06;43.44
61026;BME280;46911;32.650;-16.902;2023-03-18T10:01:25;102141.50;;;24.97;39.82
61026;BME280;46911;32.650;-16.902;2023-03-18T10:04:02;102146.38;;;24.85;38.43
61026;BME280;46911;32.650;-16.902;2023-03-18T10:06:05;102152.97;;;24.48;39.04
61026;BME280;46911;32.650;-16.902;2023-03-18T10:10:33;102152.75;;;24.94;38.35
61026;BME280;46911;32.650;-16.902;2023-03-18T10:12:41;102132.78;;;24.93;38.94
61026;BME280;46911;32.650;-16.902;2023-03-18T10:14:48;102139.34;;;24.48;39.74
61026;BME280;46911;32.650;-16.902;2023-03-18T10:19:00;102146.16;;;24.17;39.71
61026;BME280;46911;32.650;-16.902;2023-03-18T10:23:40;102151.44;;;25.14;37.98
61026;BME280;46911;32.650;-16.902;2023-03-18T10:25:52;102151.44;;;24.71;38.98
61026;BME280;46911;32.650;-16.902;2023-03-18T10:30:39;102154.28;;;25.39;37.38
61026;BME280;46911;32.650;-16.902;2023-03-18T10:32:50;102142.16;;;25.42;37.11
61026;BME280;46911;32.650;-16.902;2023-03-18T10:39:21;102153.56;;;27.09;34.85
61026;BME280;46911;32.650;-16.902;2023-03-18T10:41:35;102118.47;;;26.64;35.47
61026;BME280;46911;32.650;-16.902;2023-03-18T10:43:38;102127.13;;;26.28;35.90
61026;BME280;46911;32.650;-16.902;2023-03-18T10:45:39;102147.78;;;25.40;37.67
61026;BME280;46911;32.650;-16.902;2023-03-18T10:47:49;102140.06;;;24.50;39.15
61026;BME280;46911;32.650;-16.902;2023-03-18T10:53:03;102137.38;;;24.05;40.42
61026;BME280;46911;32.650;-16.902;2023-03-18T10:55:16;102126.09;;;24.87;38.78
61026;BME280;46911;32.650;-16.902;2023-03-18T10:57:19;102135.06;;;23.74;40.48
61026;BME280;46911;32.650;-16.902;2023-03-18T10:59:27;102148.19;;;24.42;39.88
61026;BME280;46911;32.650;-16.902;2023-03-18T11:01:28;102137.22;;;24.94;38.29
61026;BME280;46911;32.650;-16.902;2023-03-18T11:03:34;102136.91;;;25.56;37.42
61026;BME280;46911;32.650;-16.902;2023-03-18T11:05:43;102130.41;;;26.23;36.34
61026;BME280;46911;32.650;-16.902;2023-03-18T11:07:56;102150.78;;;26.04;36.33
61026;BME280;46911;32.650;-16.902;2023-03-18T11:10:17;102163.88;;;25.00;38.08
61026;BME280;46911;32.650;-16.902;2023-03-18T11:12:27;102172.91;;;24.40;40.10
61026;BME280;46911;32.650;-16.902;2023-03-18T11:14:32;102158.75;;;24.18;40.09
61026;BME280;46911;32.650;-16.902;2023-03-18T11:16:48;102170.72;;;24.70;39.61